sensor_id;sensor_type;location;lat;lon;timestamp;pressure;altitude;pressure_sealevel;temperature;humidity
22753;BME280;11543;43.144;24.684;2022-09-03T00:00:35;98763.72;;;19.13;95.98
22753;BME280;11543;43.144;24.684;2022-09-03T00:03:26;98757.00;;;19.02;96.13
22753;BME280;11543;43.144;24.684;2022-09-03T00:08:35;98773.53;;;19.01;95.97
22753;BME280;11543;43.144;24.684;2022-09-03T00:11:27;98764.94;;;18.97;96.37
22753;BME280;11543;43.144;24.684;2022-09-03T00:17:31;98752.81;;;18.93;96.37
22753;BME280;11543;43.144;24.684;2022-09-03T00:20:03;98761.81;;;18.87;96.82
22753;BME280;11543;43.144;24.684;2022-09-03T00:22:32;98764.53;;;18.87;96.78
22753;BME280;11543;43.144;24.684;2022-09-03T00:25:03;98768.09;;;18.81;97.49
22753;BME280;11543;43.144;24.684;2022-09-03T00:27:32;98772.69;;;18.87;97.49
22753;BME280;11543;43.144;24.684;2022-09-03T00:30:08;98765.78;;;18.85;97.25
22753;BME280;11543;43.144;24.684;2022-09-03T00:33:03;98767.66;;;18.97;96.90
22753;BME280;11543;43.144;24.684;2022-09-03T00:35:50;98763.28;;;18.96;96.99
22753;BME280;11543;43.144;24.684;2022-09-03T00:38:15;98768.28;;;18.99;96.91
22753;BME280;11543;43.144;24.684;2022-09-03T01:00:30;98776.88;;;19.09;94.77
22753;BME280;11543;43.144;24.684;2022-09-03T01:11:22;98781.88;;;18.99;95.64
22753;BME280;11543;43.144;24.684;2022-09-03T01:14:19;98780.41;;;19.03;95.25
22753;BME280;11543;43.144;24.684;2022-09-03T01:16:57;98779.59;;;19.09;95.36
22753;BME280;11543;43.144;24.684;2022-09-03T01:30:50;98786.28;;;19.00;94.51
22753;BME280;11543;43.144;24.684;2022-09-03T01:36:12;98784.59;;;18.99;94.89
22753;BME280;11543;43.144;24.684;2022-09-03T01:39:00;98800.09;;;19.05;94.71
22753;BME280;11543;43.144;24.684;2022-09-03T01:41:53;98797.16;;;19.07;94.61
22753;BME280;11543;43.144;24.684;2022-09-03T01:45:02;98799.69;;;19.08;94.53
22753;BME280;11543;43.144;24.684;2022-09-03T01:56:01;98798.00;;;18.94;93.77
22753;BME280;11543;43.144;24.684;2022-09-03T01:58:59;98793.81;;;18.98;93.57
22753;BME280;11543;43.144;24.684;2022-09-03T02:01:38;98802.19;;;19.03;93.77
22753;BME280;11543;43.144;24.684;2022-09-03T02:04:21;98798.81;;;19.01;93.55
22753;BME280;11543;43.144;24.684;2022-09-03T02:06:48;98799.88;;;19.00;93.48
22753;BME280;11543;43.144;24.684;2022-09-03T02:09:15;98793.38;;;19.01;93.45
22753;BME280;11543;43.144;24.684;2022-09-03T02:11:43;98800.09;;;19.05;93.48
22753;BME280;11543;43.144;24.684;2022-09-03T02:14:11;98796.09;;;19.01;93.08
22753;BME280;11543;43.144;24.684;2022-09-03T02:16:38;98814.72;;;19.04;92.34
22753;BME280;11543;43.144;24.684;2022-09-03T02:19:12;98803.84;;;18.98;92.54
22753;BME280;11543;43.144;24.684;2022-09-03T02:21:45;98796.97;;;18.82;92.72
22753;BME280;11543;43.144;24.684;2022-09-03T02:24:11;98789.63;;;18.89;92.77
22753;BME280;11543;43.144;24.684;2022-09-03T02:26:38;98790.06;;;18.80;92.76
22753;BME280;11543;43.144;24.684;2022-09-03T02:29:03;98797.16;;;18.74;93.31
22753;BME280;11543;43.144;24.684;2022-09-03T02:31:29;98790.88;;;18.67;93.77
22753;BME280;11543;43.144;24.684;2022-09-03T02:33:55;98797.59;;;18.71;94.14
22753;BME280;11543;43.144;24.684;2022-09-03T02:36:42;98792.16;;;18.71;94.23
22753;BME280;11543;43.144;24.684;2022-09-03T02:39:10;98792.97;;;18.65;94.42
22753;BME280;11543;43.144;24.684;2022-09-03T02:41:36;98802.59;;;18.74;94.52
22753;BME280;11543;43.144;24.684;2022-09-03T02:44:12;98790.47;;;18.70;94.93
22753;BME280;11543;43.144;24.684;2022-09-03T02:46:47;98795.28;;;18.74;94.99
22753;BME280;11543;43.144;24.684;2022-09-03T02:49:14;98801.34;;;18.76;94.86
22753;BME280;11543;43.144;24.684;2022-09-03T02:51:41;98799.69;;;18.82;94.45
22753;BME280;11543;43.144;24.684;2022-09-03T02:54:08;98803.84;;;18.78;94.03
22753;BME280;11543;43.144;24.684;2022-09-03T02:56:34;98800.31;;;18.71;93.72
22753;BME280;11543;43.144;24.684;2022-09-03T02:59:01;98811.81;;;18.80;93.82
22753;BME280;11543;43.144;24.684;2022-09-03T03:01:26;98809.28;;;18.78;93.39
22753;BME280;11543;43.144;24.684;2022-09-03T03:03:52;98800.94;;;18.73;92.89
22753;BME280;11543;43.144;24.684;2022-09-03T03:06:18;98808.03;;;18.67;93.00
22753;BME280;11543;43.144;24.684;2022-09-03T03:08:45;98811.38;;;18.76;92.82
22753;BME280;11543;43.144;24.684;2022-09-03T03:11:14;98804.69;;;18.85;93.07
22753;BME280;11543;43.144;24.684;2022-09-03T03:13:43;98821.41;;;18.95;92.82
22753;BME280;11543;43.144;24.684;2022-09-03T03:16:09;98816.41;;;18.92;92.40
22753;BME280;11543;43.144;24.684;2022-09-03T03:18:34;98812.22;;;18.90;92.07
22753;BME280;11543;43.144;24.684;2022-09-03T03:21:09;98820.16;;;18.98;91.88
22753;BME280;11543;43.144;24.684;2022-09-03T03:23:35;98810.53;;;18.95;91.24
22753;BME280;11543;43.144;24.684;2022-09-03T03:26:06;98816.41;;;19.05;91.25
22753;BME280;11543;43.144;24.684;2022-09-03T03:28:32;98807.41;;;18.98;90.48
22753;BME280;11543;43.144;24.684;2022-09-03T03:31:11;98811.38;;;18.89;90.78
22753;BME280;11543;43.144;24.684;2022-09-03T03:33:37;98815.34;;;18.93;90.41
22753;BME280;11543;43.144;24.684;2022-09-03T03:36:07;98804.28;;;18.82;90.36
22753;BME280;11543;43.144;24.684;2022-09-03T03:38:34;98817.25;;;18.86;90.22
22753;BME280;11543;43.144;24.684;2022-09-03T03:43:37;98815.16;;;18.75;90.17
22753;BME280;11543;43.144;24.684;2022-09-03T03:46:03;98826.66;;;18.77;90.32
22753;BME280;11543;43.144;24.684;2022-09-03T03:48:30;98822.25;;;18.76;90.24
22753;BME280;11543;43.144;24.684;2022-09-03T03:51:00;98836.47;;;18.78;90.36
22753;BME280;11543;43.144;24.684;2022-09-03T03:53:27;98827.00;;;18.61;90.13
22753;BME280;11543;43.144;24.684;2022-09-03T03:56:00;98820.56;;;18.62;90.37
22753;BME280;11543;43.144;24.684;2022-09-03T03:58:29;98815.13;;;18.62;90.36
22753;BME280;11543;43.144;24.684;2022-09-03T04:01:07;98821.81;;;18.66;90.06
22753;BME280;11543;43.144;24.684;2022-09-03T04:03:33;98819.31;;;18.71;90.09
22753;BME280;11543;43.144;24.684;2022-09-03T04:05:59;98829.16;;;18.72;90.22
22753;BME280;11543;43.144;24.684;2022-09-03T04:08:28;98815.97;;;18.69;90.26
22753;BME280;11543;43.144;24.684;2022-09-03T04:10:57;98815.53;;;18.59;90.38
22753;BME280;11543;43.144;24.684;2022-09-03T04:13:23;98822.44;;;18.61;90.37
22753;BME280;11543;43.144;24.684;2022-09-03T04:15:48;98823.50;;;18.67;90.58
22753;BME280;11543;43.144;24.684;2022-09-03T04:18:14;98819.91;;;18.60;90.17
22753;BME280;11543;43.144;24.684;2022-09-03T04:20:40;98810.72;;;18.61;89.96
22753;BME280;11543;43.144;24.684;2022-09-03T04:23:05;98823.03;;;18.57;89.84
22753;BME280;11543;43.144;24.684;2022-09-03T04:25:31;98829.28;;;18.51;89.83
22753;BME280;11543;43.144;24.684;2022-09-03T04:27:57;98816.13;;;18.48;90.27
22753;BME280;11543;43.144;24.684;2022-09-03T04:30:22;98828.88;;;18.47;90.14
22753;BME280;11543;43.144;24.684;2022-09-03T04:32:51;98829.28;;;18.44;90.21
22753;BME280;11543;43.144;24.684;2022-09-03T04:35:21;98832.22;;;18.42;90.51
22753;BME280;11543;43.144;24.684;2022-09-03T04:37:47;98829.28;;;18.37;90.53
22753;BME280;11543;43.144;24.684;2022-09-03T04:40:12;98835.97;;;18.48;90.24
22753;BME280;11543;43.144;24.684;2022-09-03T04:42:38;98842.66;;;18.45;90.08
22753;BME280;11543;43.144;24.684;2022-09-03T04:45:04;98837.66;;;18.49;90.10
22753;BME280;11543;43.144;24.684;2022-09-03T04:47:30;98834.31;;;18.47;90.04
22753;BME280;11543;43.144;24.684;2022-09-03T04:49:55;98835.97;;;18.41;90.27
22753;BME280;11543;43.144;24.684;2022-09-03T04:52:21;98836.41;;;18.52;90.28
22753;BME280;11543;43.144;24.684;2022-09-03T04:54:46;98834.94;;;18.56;90.24
22753;BME280;11543;43.144;24.684;2022-09-03T04:57:12;98845.66;;;18.64;90.10
22753;BME280;11543;43.144;24.684;2022-09-03T04:59:38;98852.78;;;18.78;89.72
22753;BME280;11543;43.144;24.684;2022-09-03T05:02:05;98853.19;;;18.75;89.76
22753;BME280;11543;43.144;24.684;2022-09-03T05:04:31;98859.06;;;18.78;89.52
22753;BME280;11543;43.144;24.684;2022-09-03T05:06:57;98850.28;;;18.83;89.50
22753;BME280;11543;43.144;24.684;2022-09-03T05:09:22;98849.44;;;18.83;89.30
22753;BME280;11543;43.144;24.684;2022-09-03T05:11:47;98860.72;;;18.73;89.68
22753;BME280;11543;43.144;24.684;2022-09-03T05:14:13;98864.47;;;18.72;89.72
22753;BME280;11543;43.144;24.684;2022-09-03T05:16:38;98861.56;;;18.73;89.96
22753;BME280;11543;43.144;24.684;2022-09-03T05:19:04;98867.63;;;18.89;89.64
22753;BME280;11543;43.144;24.684;2022-09-03T05:21:31;98871.63;;;18.99;89.52
22753;BME280;11543;43.144;24.684;2022-09-03T05:23:58;98872.66;;;18.92;89.40
22753;BME280;11543;43.144;24.684;2022-09-03T05:26:26;98868.66;;;18.81;89.33
22753;BME280;11543;43.144;24.684;2022-09-03T05:28:57;98887.72;;;18.94;88.69
22753;BME280;11543;43.144;24.684;2022-09-03T05:31:24;98889.19;;;18.90;88.98
22753;BME280;11543;43.144;24.684;2022-09-03T05:33:55;98882.06;;;18.89;88.84
22753;BME280;11543;43.144;24.684;2022-09-03T05:36:27;98888.13;;;18.91;88.64
22753;BME280;11543;43.144;24.684;2022-09-03T05:38:54;98900.47;;;19.00;88.79
22753;BME280;11543;43.144;24.684;2022-09-03T05:41:21;98895.03;;;19.00;88.78
22753;BME280;11543;43.144;24.684;2022-09-03T05:43:48;98900.91;;;18.97;88.25
22753;BME280;11543;43.144;24.684;2022-09-03T05:46:21;98901.72;;;18.98;88.37
22753;BME280;11543;43.144;24.684;2022-09-03T05:48:51;98907.19;;;19.04;88.26
22753;BME280;11543;43.144;24.684;2022-09-03T05:51:16;98908.84;;;19.05;88.60
22753;BME280;11543;43.144;24.684;2022-09-03T05:53:47;98907.41;;;19.09;88.24
22753;BME280;11543;43.144;24.684;2022-09-03T05:56:16;98903.44;;;19.19;87.99
22753;BME280;11543;43.144;24.684;2022-09-03T05:58:44;98895.06;;;19.27;88.08
22753;BME280;11543;43.144;24.684;2022-09-03T06:03:35;98901.97;;;19.36;87.31
22753;BME280;11543;43.144;24.684;2022-09-03T06:06:01;98903.22;;;19.40;86.89
22753;BME280;11543;43.144;24.684;2022-09-03T06:08:27;98911.19;;;19.48;86.86
22753;BME280;11543;43.144;24.684;2022-09-03T06:10:57;98915.56;;;19.49;86.68
22753;BME280;11543;43.144;24.684;2022-09-03T06:13:23;98919.59;;;19.53;86.19
22753;BME280;11543;43.144;24.684;2022-09-03T06:15:49;98913.09;;;19.54;85.92
22753;BME280;11543;43.144;24.684;2022-09-03T06:18:14;98928.16;;;19.63;85.65
22753;BME280;11543;43.144;24.684;2022-09-03T06:20:39;98922.28;;;19.66;86.03
22753;BME280;11543;43.144;24.684;2022-09-03T06:23:05;98921.44;;;19.66;85.74
22753;BME280;11543;43.144;24.684;2022-09-03T06:25:30;98926.47;;;19.62;85.34
22753;BME280;11543;43.144;24.684;2022-09-03T06:27:56;98936.31;;;19.63;85.06
22753;BME280;11543;43.144;24.684;2022-09-03T06:30:21;98946.13;;;19.51;84.95
22753;BME280;11543;43.144;24.684;2022-09-03T06:32:49;98949.06;;;19.43;84.68
22753;BME280;11543;43.144;24.684;2022-09-03T06:35:15;98955.56;;;19.42;84.62
22753;BME280;11543;43.144;24.684;2022-09-03T06:37:41;98954.72;;;19.41;84.53
22753;BME280;11543;43.144;24.684;2022-09-03T06:40:08;98950.94;;;19.29;85.34
22753;BME280;11543;43.144;24.684;2022-09-03T06:42:40;98946.75;;;19.27;85.50
22753;BME280;11543;43.144;24.684;2022-09-03T06:45:09;98938.19;;;19.23;85.54
22753;BME280;11543;43.144;24.684;2022-09-03T06:47:35;98933.16;;;19.27;85.96
22753;BME280;11543;43.144;24.684;2022-09-03T06:50:00;98951.38;;;19.39;86.00
22753;BME280;11543;43.144;24.684;2022-09-03T06:52:27;98946.56;;;19.35;85.88
22753;BME280;11543;43.144;24.684;2022-09-03T06:54:52;98949.91;;;19.37;85.65
22753;BME280;11543;43.144;24.684;2022-09-03T06:57:18;98948.22;;;19.49;85.79
22753;BME280;11543;43.144;24.684;2022-09-03T06:59:43;98949.94;;;19.63;85.60
22753;BME280;11543;43.144;24.684;2022-09-03T07:02:09;98950.75;;;19.70;85.81
22753;BME280;11543;43.144;24.684;2022-09-03T07:04:35;98948.44;;;19.74;85.57
22753;BME280;11543;43.144;24.684;2022-09-03T07:07:00;98945.94;;;19.79;85.24
22753;BME280;11543;43.144;24.684;2022-09-03T07:09:26;98949.06;;;19.89;84.91
22753;BME280;11543;43.144;24.684;2022-09-03T07:11:52;98956.19;;;19.97;84.60
22753;BME280;11543;43.144;24.684;2022-09-03T07:14:19;98960.78;;;20.03;84.21
22753;BME280;11543;43.144;24.684;2022-09-03T07:16:45;98958.69;;;19.98;83.84
22753;BME280;11543;43.144;24.684;2022-09-03T07:19:11;98968.09;;;20.09;83.33
22753;BME280;11543;43.144;24.684;2022-09-03T07:21:38;98970.41;;;20.12;83.19
22753;BME280;11543;43.144;24.684;2022-09-03T07:24:07;98963.25;;;20.24;82.68
22753;BME280;11543;43.144;24.684;2022-09-03T07:26:36;98961.78;;;20.22;82.51
22753;BME280;11543;43.144;24.684;2022-09-03T07:29:06;98974.13;;;20.31;82.71
22753;BME280;11543;43.144;24.684;2022-09-03T07:31:40;98974.53;;;20.34;82.21
22753;BME280;11543;43.144;24.684;2022-09-03T07:34:08;98977.69;;;20.31;81.65
22753;BME280;11543;43.144;24.684;2022-09-03T07:36:39;98968.84;;;20.36;81.69
22753;BME280;11543;43.144;24.684;2022-09-03T07:39:09;98973.88;;;20.46;81.76
22753;BME280;11543;43.144;24.684;2022-09-03T07:41:39;98968.25;;;20.41;81.70
22753;BME280;11543;43.144;24.684;2022-09-03T07:44:08;98973.91;;;20.39;80.81
22753;BME280;11543;43.144;24.684;2022-09-03T07:46:35;98978.91;;;20.35;80.71
22753;BME280;11543;43.144;24.684;2022-09-03T07:49:01;98983.31;;;20.43;80.55
22753;BME280;11543;43.144;24.684;2022-09-03T07:51:29;98991.06;;;20.53;80.84
22753;BME280;11543;43.144;24.684;2022-09-03T07:54:00;98994.63;;;20.47;80.68
22753;BME280;11543;43.144;24.684;2022-09-03T07:56:32;98993.34;;;20.56;80.83
22753;BME280;11543;43.144;24.684;2022-09-03T07:58:59;99003.38;;;20.62;80.70
22753;BME280;11543;43.144;24.684;2022-09-03T08:01:26;98995.63;;;20.59;80.67
22753;BME280;11543;43.144;24.684;2022-09-03T08:03:59;98998.13;;;20.67;80.40
22753;BME280;11543;43.144;24.684;2022-09-03T08:06:26;98996.00;;;20.69;80.39
22753;BME280;11543;43.144;24.684;2022-09-03T08:09:01;98994.09;;;20.76;80.28
22753;BME280;11543;43.144;24.684;2022-09-03T08:11:28;98999.94;;;20.80;80.64
22753;BME280;11543;43.144;24.684;2022-09-03T08:16:25;98988.22;;;20.79;79.92
22753;BME280;11543;43.144;24.684;2022-09-03T08:18:51;98993.66;;;20.79;79.26
22753;BME280;11543;43.144;24.684;2022-09-03T08:21:18;98997.25;;;20.73;79.84
22753;BME280;11543;43.144;24.684;2022-09-03T08:23:49;98990.31;;;20.77;79.74
22753;BME280;11543;43.144;24.684;2022-09-03T08:26:16;98991.97;;;20.78;79.80
22753;BME280;11543;43.144;24.684;2022-09-03T08:28:42;98990.94;;;20.79;79.93
22753;BME280;11543;43.144;24.684;2022-09-03T08:31:18;98997.88;;;20.82;79.78
22753;BME280;11543;43.144;24.684;2022-09-03T08:33:52;98987.59;;;20.77;80.11
22753;BME280;11543;43.144;24.684;2022-09-03T08:36:23;98991.97;;;20.78;79.62
22753;BME280;11543;43.144;24.684;2022-09-03T08:38:53;98991.19;;;20.71;78.96
22753;BME280;11543;43.144;24.684;2022-09-03T08:47:13;98992.50;;;20.55;78.82
22753;BME280;11543;43.144;24.684;2022-09-03T08:50:01;98992.06;;;20.65;78.71
22753;BME280;11543;43.144;24.684;2022-09-03T08:52:44;98987.91;;;20.56;78.85
22753;BME280;11543;43.144;24.684;2022-09-03T08:55:52;98999.00;;;20.61;79.55
22753;BME280;11543;43.144;24.684;2022-09-03T08:58:20;98997.69;;;20.70;80.01
22753;BME280;11543;43.144;24.684;2022-09-03T09:03:56;98994.31;;;20.81;80.16
22753;BME280;11543;43.144;24.684;2022-09-03T09:06:35;98986.13;;;20.81;80.22
22753;BME280;11543;43.144;24.684;2022-09-03T09:14:30;98993.53;;;21.06;79.53
22753;BME280;11543;43.144;24.684;2022-09-03T09:17:13;98992.06;;;21.10;78.47
22753;BME280;11543;43.144;24.684;2022-09-03T09:22:40;98987.16;;;21.18;78.69
22753;BME280;11543;43.144;24.684;2022-09-03T09:25:18;98990.63;;;21.01;78.57
22753;BME280;11543;43.144;24.684;2022-09-03T09:27:56;98991.44;;;21.08;78.47
22753;BME280;11543;43.144;24.684;2022-09-03T09:30:24;98988.44;;;21.16;78.98
22753;BME280;11543;43.144;24.684;2022-09-03T09:32:50;98991.78;;;21.24;79.57
22753;BME280;11543;43.144;24.684;2022-09-03T09:35:18;98992.06;;;21.41;78.60
22753;BME280;11543;43.144;24.684;2022-09-03T09:37:57;98999.16;;;21.49;78.55
22753;BME280;11543;43.144;24.684;2022-09-03T09:40:43;99002.00;;;21.60;78.81
22753;BME280;11543;43.144;24.684;2022-09-03T09:43:13;99009.13;;;21.68;78.11
22753;BME280;11543;43.144;24.684;2022-09-03T09:45:52;99007.38;;;21.74;77.98
22753;BME280;11543;43.144;24.684;2022-09-03T09:48:25;99009.53;;;21.65;76.88
22753;BME280;11543;43.144;24.684;2022-09-03T09:51:21;99017.38;;;21.86;75.98
22753;BME280;11543;43.144;24.684;2022-09-03T09:54:25;99016.53;;;21.86;76.02
22753;BME280;11543;43.144;24.684;2022-09-03T09:57:03;99015.63;;;21.92;77.25
22753;BME280;11543;43.144;24.684;2022-09-03T09:59:30;99016.59;;;22.04;76.37
22753;BME280;11543;43.144;24.684;2022-09-03T10:02:07;99013.34;;;22.14;75.08
22753;BME280;11543;43.144;24.684;2022-09-03T10:04:35;99023.06;;;22.10;74.12
22753;BME280;11543;43.144;24.684;2022-09-03T10:09:44;99022.69;;;22.06;75.22
22753;BME280;11543;43.144;24.684;2022-09-03T10:20:48;99033.75;;;21.86;74.20
22753;BME280;11543;43.144;24.684;2022-09-03T10:23:26;99038.81;;;21.83;73.56
22753;BME280;11543;43.144;24.684;2022-09-03T10:28:32;99038.81;;;21.83;74.04
22753;BME280;11543;43.144;24.684;2022-09-03T10:31:35;99043.50;;;21.76;75.30
22753;BME280;11543;43.144;24.684;2022-09-03T10:34:28;99039.72;;;21.77;75.87
22753;BME280;11543;43.144;24.684;2022-09-03T10:37:20;99046.84;;;21.78;76.36
22753;BME280;11543;43.144;24.684;2022-09-03T10:42:45;99039.59;;;21.90;76.16
22753;BME280;11543;43.144;24.684;2022-09-03T10:50:52;99044.09;;;22.09;74.25
22753;BME280;11543;43.144;24.684;2022-09-03T10:56:06;99055.34;;;22.19;74.01
22753;BME280;11543;43.144;24.684;2022-09-03T11:01:12;99042.53;;;22.38;74.91
22753;BME280;11543;43.144;24.684;2022-09-03T11:06:36;99043.06;;;22.47;73.73
22753;BME280;11543;43.144;24.684;2022-09-03T11:11:36;99039.44;;;22.53;72.74
22753;BME280;11543;43.144;24.684;2022-09-03T11:14:08;99042.00;;;22.48;72.79
22753;BME280;11543;43.144;24.684;2022-09-03T11:16:54;99042.00;;;22.48;72.25
22753;BME280;11543;43.144;24.684;2022-09-03T11:19:35;99043.28;;;22.45;72.46
22753;BME280;11543;43.144;24.684;2022-09-03T11:22:03;99043.53;;;22.44;72.76
22753;BME280;11543;43.144;24.684;2022-09-03T11:24:30;99049.16;;;22.49;73.32
22753;BME280;11543;43.144;24.684;2022-09-03T11:29:51;99052.03;;;22.54;71.90
22753;BME280;11543;43.144;24.684;2022-09-03T11:32:37;99047.94;;;22.45;70.50
22753;BME280;11543;43.144;24.684;2022-09-03T11:35:23;99051.56;;;22.39;72.41
22753;BME280;11543;43.144;24.684;2022-09-03T11:37:54;99041.69;;;22.38;72.25
22753;BME280;11543;43.144;24.684;2022-09-03T11:40:32;99046.72;;;22.41;72.52
22753;BME280;11543;43.144;24.684;2022-09-03T11:45:37;99047.16;;;22.38;72.98
22753;BME280;11543;43.144;24.684;2022-09-03T11:48:16;99048.38;;;22.42;73.23
22753;BME280;11543;43.144;24.684;2022-09-03T11:50:52;99060.16;;;22.42;73.51
22753;BME280;11543;43.144;24.684;2022-09-03T11:58:34;99061.75;;;22.50;72.32
22753;BME280;11543;43.144;24.684;2022-09-03T12:01:03;99063.88;;;22.48;72.42
22753;BME280;11543;43.144;24.684;2022-09-03T12:03:48;99059.63;;;22.52;72.16
22753;BME280;11543;43.144;24.684;2022-09-03T12:06:48;99055.44;;;22.49;72.81
22753;BME280;11543;43.144;24.684;2022-09-03T12:20:34;99064.34;;;21.95;73.87
22753;BME280;11543;43.144;24.684;2022-09-03T12:23:00;99059.78;;;21.89;73.96
22753;BME280;11543;43.144;24.684;2022-09-03T12:25:27;99057.78;;;21.78;75.10
22753;BME280;11543;43.144;24.684;2022-09-03T12:27:53;99053.19;;;21.72;75.07
22753;BME280;11543;43.144;24.684;2022-09-03T12:30:23;99067.72;;;21.66;75.42
22753;BME280;11543;43.144;24.684;2022-09-03T12:32:49;99054.09;;;21.59;76.20
22753;BME280;11543;43.144;24.684;2022-09-03T12:35:23;99058.38;;;21.48;76.46
22753;BME280;11543;43.144;24.684;2022-09-03T12:37:54;99072.81;;;21.55;76.68
22753;BME280;11543;43.144;24.684;2022-09-03T12:40:24;99072.22;;;21.53;77.26
22753;BME280;11543;43.144;24.684;2022-09-03T12:42:50;99066.75;;;21.53;77.79
22753;BME280;11543;43.144;24.684;2022-09-03T12:45:48;99070.09;;;21.55;77.25
22753;BME280;11543;43.144;24.684;2022-09-03T12:48:17;99064.47;;;21.50;77.22
22753;BME280;11543;43.144;24.684;2022-09-03T12:50:45;99070.13;;;21.49;76.91
22753;BME280;11543;43.144;24.684;2022-09-03T12:53:31;99062.78;;;21.49;77.02
22753;BME280;11543;43.144;24.684;2022-09-03T12:56:01;99062.81;;;21.43;77.01
22753;BME280;11543;43.144;24.684;2022-09-03T12:58:39;99064.28;;;21.45;77.38
22753;BME280;11543;43.144;24.684;2022-09-03T13:01:15;99064.91;;;21.47;76.90
22753;BME280;11543;43.144;24.684;2022-09-03T13:06:33;99073.13;;;21.41;76.52
22753;BME280;11543;43.144;24.684;2022-09-03T13:09:03;99068.59;;;21.28;77.37
22753;BME280;11543;43.144;24.684;2022-09-03T13:11:35;99066.91;;;21.27;78.13
22753;BME280;11543;43.144;24.684;2022-09-03T13:14:07;99061.47;;;21.27;78.55
22753;BME280;11543;43.144;24.684;2022-09-03T13:22:24;99049.22;;;21.36;79.47
22753;BME280;11543;43.144;24.684;2022-09-03T13:38:50;99044.16;;;22.03;78.74
22753;BME280;11543;43.144;24.684;2022-09-03T13:41:36;99038.16;;;22.12;78.55
22753;BME280;11543;43.144;24.684;2022-09-03T13:44:20;99040.22;;;22.17;78.56
22753;BME280;11543;43.144;24.684;2022-09-03T13:46:51;99038.34;;;22.36;77.04
22753;BME280;11543;43.144;24.684;2022-09-03T13:52:36;99048.66;;;22.59;75.60
22753;BME280;11543;43.144;24.684;2022-09-03T13:58:16;99043.09;;;22.65;76.22
22753;BME280;11543;43.144;24.684;2022-09-03T14:00:46;99043.56;;;22.62;75.27
22753;BME280;11543;43.144;24.684;2022-09-03T14:03:47;99038.94;;;22.63;75.40
22753;BME280;11543;43.144;24.684;2022-09-03T14:14:43;99031.56;;;22.81;73.40
22753;BME280;11543;43.144;24.684;2022-09-03T14:17:14;99034.13;;;22.76;74.08
22753;BME280;11543;43.144;24.684;2022-09-03T14:19:51;99028.66;;;22.76;74.09
22753;BME280;11543;43.144;24.684;2022-09-03T14:22:27;99027.00;;;22.75;73.73
22753;BME280;11543;43.144;24.684;2022-09-03T14:25:10;99037.19;;;22.68;73.98
22753;BME280;11543;43.144;24.684;2022-09-03T14:27:41;99042.03;;;22.66;74.00
22753;BME280;11543;43.144;24.684;2022-09-03T14:30:32;99046.28;;;22.62;74.04
22753;BME280;11543;43.144;24.684;2022-09-03T14:46:39;99058.41;;;22.48;74.59
22753;BME280;11543;43.144;24.684;2022-09-03T14:49:25;99057.56;;;22.47;74.44
22753;BME280;11543;43.144;24.684;2022-09-03T14:55:26;99059.94;;;22.44;74.85
22753;BME280;11543;43.144;24.684;2022-09-03T14:58:16;99052.78;;;22.43;75.05
22753;BME280;11543;43.144;24.684;2022-09-03T15:01:09;99050.06;;;22.43;75.59
22753;BME280;11543;43.144;24.684;2022-09-03T15:09:45;99058.56;;;22.53;76.37
22753;BME280;11543;43.144;24.684;2022-09-03T15:12:50;99058.75;;;22.58;76.53
22753;BME280;11543;43.144;24.684;2022-09-03T15:15:29;99057.22;;;22.62;76.21
22753;BME280;11543;43.144;24.684;2022-09-03T15:18:26;99054.66;;;22.67;76.53
22753;BME280;11543;43.144;24.684;2022-09-03T15:21:06;99064.06;;;22.71;76.54
22753;BME280;11543;43.144;24.684;2022-09-03T15:37:17;99065.66;;;22.79;73.88
22753;BME280;11543;43.144;24.684;2022-09-03T15:39:44;99061.50;;;22.76;73.73
22753;BME280;11543;43.144;24.684;2022-09-03T15:42:26;99076.22;;;22.75;73.74
22753;BME280;11543;43.144;24.684;2022-09-03T15:44:55;99060.72;;;22.69;73.81
22753;BME280;11543;43.144;24.684;2022-09-03T15:47:47;99075.47;;;22.68;73.80
22753;BME280;11543;43.144;24.684;2022-09-03T15:53:23;99070.16;;;22.55;74.16
22753;BME280;11543;43.144;24.684;2022-09-03T15:58:44;99084.09;;;22.47;74.48
22753;BME280;11543;43.144;24.684;2022-09-03T16:04:42;99081.72;;;22.32;74.50
22753;BME280;11543;43.144;24.684;2022-09-03T16:07:29;99077.97;;;22.27;74.81
22753;BME280;11543;43.144;24.684;2022-09-03T16:15:45;99084.00;;;22.10;75.04
22753;BME280;11543;43.144;24.684;2022-09-03T16:18:29;99081.53;;;22.02;75.53
22753;BME280;11543;43.144;24.684;2022-09-03T16:20:58;99084.09;;;21.97;75.72
22753;BME280;11543;43.144;24.684;2022-09-03T16:26:20;99078.13;;;21.82;75.89
22753;BME280;11543;43.144;24.684;2022-09-03T16:29:06;99077.94;;;21.77;75.99
22753;BME280;11543;43.144;24.684;2022-09-03T16:34:34;99091.91;;;21.62;76.28
22753;BME280;11543;43.144;24.684;2022-09-03T16:40:07;99092.81;;;21.49;78.24
22753;BME280;11543;43.144;24.684;2022-09-03T16:45:37;99094.56;;;21.37;78.98
22753;BME280;11543;43.144;24.684;2022-09-03T16:48:10;99091.22;;;21.35;79.61
22753;BME280;11543;43.144;24.684;2022-09-03T16:59:45;99107.88;;;21.14;80.86
22753;BME280;11543;43.144;24.684;2022-09-03T17:26:17;99131.22;;;21.03;81.28
22753;BME280;11543;43.144;24.684;2022-09-03T17:29:15;99131.25;;;20.96;81.35
22753;BME280;11543;43.144;24.684;2022-09-03T17:34:58;99132.13;;;20.84;81.71
22753;BME280;11543;43.144;24.684;2022-09-03T17:37:44;99140.91;;;20.79;82.08
22753;BME280;11543;43.144;24.684;2022-09-03T17:43:48;99141.16;;;20.64;82.42
22753;BME280;11543;43.144;24.684;2022-09-03T17:46:30;99147.25;;;20.60;82.64
22753;BME280;11543;43.144;24.684;2022-09-03T17:58:13;99164.84;;;20.38;83.19
22753;BME280;11543;43.144;24.684;2022-09-03T18:04:16;99169.47;;;20.24;83.63
22753;BME280;11543;43.144;24.684;2022-09-03T18:06:44;99169.69;;;20.16;84.00